METAR Data
IDs: Format: Raw Decoded Include TAF

Data at: 2023 UTC 26 Sep 2021

METAR for:KUDG (Darlington Cnty, SC, US)
Text:KUDG 261956Z AUTO 36005KT 10SM SCT055 27/14 A3007 RMK AO2 SLP184 T02720139 PNO $
Temperature: 27.2°C ( 81°F)
Dewpoint: 13.9°C ( 57°F) [RH = 44%]
Pressure (altimeter):30.07 inches Hg (1018.4 mb) [Sea level pressure: 1018.4 mb]
Winds:from the N (360 degrees) at 6 MPH (5 knots; 2.6 m/s)
Visibility:10 or more sm (16+ km)
Ceiling:at least 12,000 feet AGL
Clouds: scattered clouds at 5500 feet AGL
QC Flag:automated observation with no human augmentation; SOME DATA ABOVE MAY BE INACCURATE!!!"$" is an indication the sensor requires maintenance.

TAF for:KUDG (Darlington Cnty, SC, US)
Text:No data found